Time;durP1;ratioP1;P1;durP2;ratioP2;P2;SDS_P1;SDS_P2;PMS_P1;PMS_P2;Temp;Humidity;BMP_temperature;BMP_pressure;BME280_temperature;BME280_humidity;BME280_pressure;Samples;Min_cycle;Max_cycle;Signal;HPM_P1;HPM_P2
2023/05/22 00:00:17;;;;;;;9.50;4.40;;;;;;;14.43;65.49;100814.59;105561;1254;82586;-59
2023/05/22 00:03:05;;;;;;;5.70;4.20;;;;;;;14.40;65.49;100815.22;105506;1256;74627;-59
2023/05/22 00:05:37;;;;;;;7.20;4.50;;;;;;;14.39;65.54;100814.96;105571;1254;69276;-59
2023/05/22 00:08:10;;;;;;;13.60;4.80;;;;;;;14.35;65.70;100813.02;105592;1256;69882;-60
2023/05/22 00:10:38;;;;;;;8.50;4.30;;;;;;;14.32;65.95;100817.92;105603;1254;73650;-59
2023/05/22 00:13:08;;;;;;;8.10;4.30;;;;;;;14.31;65.95;100817.27;105584;1256;83258;-59
2023/05/22 00:15:36;;;;;;;5.20;4.40;;;;;;;14.28;66.04;100816.66;105550;1254;73437;-59
2023/05/22 00:18:05;;;;;;;6.70;4.90;;;;;;;14.23;66.19;100816.02;105526;1256;69116;-59
2023/05/22 00:20:37;;;;;;;6.10;3.90;;;;;;;14.16;66.37;100818.96;105643;1256;69108;-59
2023/05/22 00:23:09;;;;;;;7.40;4.70;;;;;;;14.07;66.54;100811.83;105589;1256;74844;-59
2023/05/22 00:25:40;;;;;;;6.20;4.00;;;;;;;13.99;66.78;100813.23;105607;1257;83147;-59
2023/05/22 00:28:08;;;;;;;5.90;4.80;;;;;;;13.92;66.82;100819.69;105551;1254;72393;-59
2023/05/22 00:30:36;;;;;;;5.90;4.10;;;;;;;13.87;67.08;100819.59;105527;1256;69118;-59
2023/05/22 00:33:05;;;;;;;4.90;4.10;;;;;;;13.83;67.34;100818.66;105497;1254;69274;-59
2023/05/22 00:35:34;;;;;;;6.80;4.20;;;;;;;13.79;67.48;100817.84;105557;1256;75002;-59
2023/05/22 00:38:04;;;;;;;7.20;4.20;;;;;;;13.76;67.70;100819.15;105493;1254;82381;-59
2023/05/22 00:40:32;;;;;;;6.30;4.30;;;;;;;13.73;67.93;100815.45;105523;1254;74010;-59
2023/05/22 00:43:07;;;;;;;6.40;4.20;;;;;;;13.67;67.98;100813.42;105607;1256;69144;-59
2023/05/22 00:45:36;;;;;;;5.50;4.60;;;;;;;13.62;68.25;100810.31;105577;1254;69233;-59
2023/05/22 00:48:06;;;;;;;6.20;4.50;;;;;;;13.55;68.23;100808.82;105616;1254;75130;-59
2023/05/22 00:50:35;;;;;;;;;;;;;;;13.51;68.45;100803.77;105500;1259;83321;-59
2023/05/22 00:53:03;;;;;;;6.00;4.50;;;;;;;13.46;68.69;100803.97;105489;1254;72704;-59
2023/05/22 00:55:32;;;;;;;5.00;4.00;;;;;;;13.41;68.64;100803.64;105473;1256;69045;-59
2023/05/22 00:58:02;;;;;;;7.00;4.20;;;;;;;13.35;68.92;100799.33;105467;1254;69183;-59
2023/05/22 01:00:33;;;;;;;4.60;4.10;;;;;;;13.28;68.92;100797.19;105499;1254;75214;-59
2023/05/22 01:03:04;;;;;;;5.50;4.30;;;;;;;13.20;68.98;100799.55;105503;1254;82033;-59
2023/05/22 01:05:33;;;;;;;8.40;4.90;;;;;;;13.14;69.32;100800.50;105539;1256;73095;-59
2023/05/22 01:08:02;;;;;;;7.60;4.60;;;;;;;13.09;69.35;100804.25;105598;1256;69162;-59
2023/05/22 01:10:32;;;;;;;11.60;4.60;;;;;;;13.01;69.59;100801.58;105544;1254;69249;-59
2023/05/22 01:13:23;;;;;;;6.40;4.40;;;;;;;12.93;69.65;100800.32;105594;1254;74961;-59
2023/05/22 01:16:23;;;;;;;6.20;4.40;;;;;;;12.85;70.02;100802.75;105553;1254;82367;-59
2023/05/22 01:19:01;;;;;;;6.90;4.30;;;;;;;12.77;70.32;100801.17;105516;1254;72712;-59
2023/05/22 01:21:38;;;;;;;5.80;4.70;;;;;;;12.68;70.34;100798.88;105588;1254;69071;-59
2023/05/22 01:24:17;;;;;;;6.90;4.30;;;;;;;12.63;70.74;100799.23;105539;1252;69170;-59
2023/05/22 01:26:53;;;;;;;6.70;4.60;;;;;;;12.55;70.67;100800.77;105560;1256;74838;-59
2023/05/22 01:29:36;;;;;;;7.50;4.80;;;;;;;12.48;71.12;100803.52;105576;1254;83756;-59
2023/05/22 01:32:04;;;;;;;5.00;4.10;;;;;;;12.42;71.15;100803.05;105503;1254;73790;-59
2023/05/22 01:34:35;;;;;;;5.80;4.40;;;;;;;12.36;71.41;100803.45;105535;1257;69173;-59
2023/05/22 01:37:04;;;;;;;5.80;4.50;;;;;;;12.31;71.75;100803.27;105480;1255;69195;-59
2023/05/22 01:39:32;;;;;;;8.20;4.80;;;;;;;12.22;71.56;100805.35;105591;1254;75105;-59
2023/05/22 01:42:01;;;;;;;4.70;4.10;;;;;;;12.14;71.85;100805.48;105500;1254;83368;-59
2023/05/22 01:44:29;;;;;;;7.10;4.30;;;;;;;12.07;71.97;100806.46;105608;1253;72519;-59
2023/05/22 01:47:02;;;;;;;8.70;5.20;;;;;;;12.01;72.39;100807.54;105491;1252;69193;-59
2023/05/22 01:49:32;;;;;;;6.70;4.90;;;;;;;12.02;72.55;100807.69;105517;1258;69179;-59
2023/05/22 01:52:17;;;;;;;8.00;4.60;;;;;;;11.95;72.59;100812.32;105549;1257;73253;-59
2023/05/22 01:54:57;;;;;;;9.60;4.70;;;;;;;11.89;72.77;100813.42;105542;1254;83481;-59
2023/05/22 01:57:30;;;;;;;6.10;4.00;;;;;;;11.82;73.02;100813.08;105501;1254;72777;-59
2023/05/22 02:00:08;;;;;;;6.50;4.40;;;;;;;11.77;73.16;100812.41;105562;1258;69202;-59
2023/05/22 02:02:48;;;;;;;6.00;4.80;;;;;;;11.70;73.40;100813.17;105529;1256;69160;-59
2023/05/22 02:05:21;;;;;;;8.90;4.80;;;;;;;11.65;73.53;100815.27;105488;1254;73553;-59
2023/05/22 02:07:49;;;;;;;6.50;4.50;;;;;;;11.61;73.72;100819.60;105515;1254;82580;-59
2023/05/22 02:10:19;;;;;;;6.30;4.80;;;;;;;11.57;73.79;100817.30;105524;1254;72824;-59
2023/05/22 02:12:48;;;;;;;8.20;4.50;;;;;;;11.52;74.11;100819.40;105488;1254;69978;-59
2023/05/22 02:15:17;;;;;;;6.60;4.90;;;;;;;11.48;74.22;100814.27;105528;1254;69207;-59
2023/05/22 02:17:48;;;;;;;5.20;4.10;;;;;;;11.44;74.18;100819.50;105509;1257;74358;-59
2023/05/22 02:20:16;;;;;;;5.80;4.60;;;;;;;11.38;74.27;100814.44;105548;1254;84226;-59
2023/05/22 02:22:46;;;;;;;6.70;4.90;;;;;;;11.35;74.61;100814.54;105554;1256;73420;-59
2023/05/22 02:25:15;;;;;;;5.20;4.70;;;;;;;11.30;74.63;100816.65;105568;1254;69163;-60
2023/05/22 02:27:46;;;;;;;5.40;4.60;;;;;;;11.25;74.69;100813.84;105541;1254;69078;-60
2023/05/22 02:30:15;;;;;;;8.40;4.70;;;;;;;11.22;75.04;100812.69;105588;1257;74303;-60
2023/05/22 02:32:45;;;;;;;6.10;4.60;;;;;;;11.21;75.13;100809.77;105665;1254;84409;-59
2023/05/22 02:35:13;;;;;;;6.60;4.70;;;;;;;11.16;75.21;100810.09;105518;1257;73648;-59
2023/05/22 02:37:41;;;;;;;6.20;4.90;;;;;;;11.11;75.13;100807.47;105532;1254;69207;-59
2023/05/22 02:40:11;;;;;;;6.60;4.70;;;;;;;11.04;75.35;100802.08;105611;1257;69189;-59
2023/05/22 02:42:39;;;;;;;6.20;4.80;;;;;;;10.98;75.50;100794.42;105641;1254;75006;-59
2023/05/22 02:45:08;;;;;;;7.00;4.70;;;;;;;10.96;75.63;100790.66;105538;1257;83362;-58
2023/05/22 02:47:36;;;;;;;7.60;4.60;;;;;;;10.93;75.81;100793.00;105518;1259;72427;-59
2023/05/22 02:50:06;;;;;;;6.70;4.80;;;;;;;10.92;76.05;100794.45;105532;1254;69192;-59
2023/05/22 02:52:35;;;;;;;7.00;4.70;;;;;;;10.93;76.35;100793.03;105540;1259;69340;-59
2023/05/22 02:55:04;;;;;;;5.20;4.60;;;;;;;10.92;76.34;100792.00;105492;1254;75049;-59
2023/05/22 02:57:33;;;;;;;7.00;4.60;;;;;;;10.87;76.19;100791.80;105520;1254;83784;-58
2023/05/22 03:00:02;;;;;;;6.10;5.30;;;;;;;10.81;76.19;100791.66;105595;1257;73851;-59
2023/05/22 03:02:35;;;;;;;6.80;4.90;;;;;;;10.78;76.70;100789.11;105541;1258;69170;-58
2023/05/22 03:05:05;;;;;;;6.60;4.60;;;;;;;10.79;76.85;100787.52;105508;1257;69319;-58
2023/05/22 03:07:33;;;;;;;7.90;5.00;;;;;;;10.76;76.87;100791.29;105497;1258;73223;-59
2023/05/22 03:10:02;;;;;;;6.50;4.80;;;;;;;10.74;77.06;100789.26;105582;1256;82560;-59
2023/05/22 03:12:30;;;;;;;5.50;4.40;;;;;;;10.74;77.11;100791.52;105545;1254;73621;-59
2023/05/22 03:15:00;;;;;;;6.50;4.80;;;;;;;10.74;77.45;100796.08;105538;1254;69228;-59
2023/05/22 03:17:29;;;;;;;7.90;5.10;;;;;;;10.75;77.73;100795.86;105584;1254;69739;-59
2023/05/22 03:19:58;;;;;;;7.60;5.20;;;;;;;10.79;77.81;100792.75;105482;1254;73819;-59
2023/05/22 03:22:26;;;;;;;5.80;4.30;;;;;;;10.78;77.82;100791.39;105467;1258;83412;-59
2023/05/22 03:24:54;;;;;;;6.00;4.90;;;;;;;10.77;78.10;100788.47;105523;1255;73709;-59
2023/05/22 03:27:22;;;;;;;8.30;5.10;;;;;;;10.78;78.19;100787.02;105455;1257;69022;-59
2023/05/22 03:29:51;;;;;;;6.00;5.00;;;;;;;10.80;78.44;100782.77;105380;1256;206220;-58
2023/05/22 03:32:21;;;;;;;7.00;4.70;;;;;;;10.86;78.88;100781.35;105567;1256;73624;-59
2023/05/22 03:34:49;;;;;;;6.30;4.60;;;;;;;10.91;78.84;100775.58;105557;1253;83497;-59
2023/05/22 03:37:18;;;;;;;6.40;4.70;;;;;;;10.91;78.80;100776.13;105510;1256;73786;-59
2023/05/22 03:39:46;;;;;;;6.30;4.60;;;;;;;10.94;78.98;100775.14;105443;1254;69154;-59
2023/05/22 03:42:25;;;;;;;6.30;4.80;;;;;;;10.98;79.17;100773.09;105516;1254;69087;-59
2023/05/22 03:44:53;;;;;;;7.30;5.10;;;;;;;11.02;79.34;100773.14;105497;1259;74275;-58
2023/05/22 03:47:22;;;;;;;6.80;4.50;;;;;;;11.04;79.33;100777.77;105548;1256;83137;-59
2023/05/22 03:49:50;;;;;;;5.50;4.70;;;;;;;11.06;79.46;100779.13;105574;1254;72642;-58
2023/05/22 03:52:18;;;;;;;5.90;4.40;;;;;;;11.09;79.78;100780.58;105467;1259;69183;-59
2023/05/22 03:54:47;;;;;;;7.00;4.70;;;;;;;11.15;80.03;100780.23;105585;1256;70018;-47
2023/05/22 03:57:18;;;;;;;8.70;4.70;;;;;;;11.20;80.11;100777.63;105483;1259;73620;-48
2023/05/22 03:59:47;;;;;;;8.30;5.00;;;;;;;11.24;80.22;100780.61;105538;1257;83222;-47
2023/05/22 04:02:16;;;;;;;6.70;4.90;;;;;;;11.29;80.44;100778.69;105572;1253;72785;-48
2023/05/22 04:04:45;;;;;;;7.30;4.50;;;;;;;11.34;80.55;100779.39;105579;1252;70021;-49
2023/05/22 04:07:13;;;;;;;5.80;4.40;;;;;;;11.38;80.60;100776.80;105521;1256;69976;-48
2023/05/22 04:09:42;;;;;;;5.80;4.80;;;;;;;11.42;80.69;100781.25;105600;1256;73210;-48
2023/05/22 04:12:10;;;;;;;6.60;5.60;;;;;;;11.49;80.96;100780.65;105539;1254;83337;-48
2023/05/22 04:14:38;;;;;;;6.80;5.10;;;;;;;11.56;81.05;100782.67;105594;1257;72753;-47
2023/05/22 04:17:07;;;;;;;6.20;4.70;;;;;;;11.60;81.23;100782.69;105549;1257;70030;-48
2023/05/22 04:19:35;;;;;;;6.00;4.70;;;;;;;11.66;81.35;100780.06;105550;1256;70014;-49
2023/05/22 04:22:04;;;;;;;7.50;5.20;;;;;;;11.71;81.39;100780.76;105501;1257;73916;-47
2023/05/22 04:24:32;;;;;;;7.40;4.90;;;;;;;11.75;81.60;100781.66;105511;1257;83372;-48
2023/05/22 04:27:01;;;;;;;7.40;4.90;;;;;;;11.79;81.56;100777.31;105516;1255;73745;-48
2023/05/22 04:29:29;;;;;;;5.50;4.50;;;;;;;11.85;81.62;100782.90;105509;1259;70091;-48
2023/05/22 04:31:59;;;;;;;7.00;5.00;;;;;;;11.88;81.62;100783.32;105488;1254;70020;-51
2023/05/22 04:34:28;;;;;;;7.70;5.10;;;;;;;11.92;81.67;100780.04;105573;1254;74873;-47
2023/05/22 04:36:58;;;;;;;8.40;5.00;;;;;;;11.94;81.74;100779.27;105650;1254;83384;-48
2023/05/22 04:39:27;;;;;;;7.50;5.60;;;;;;;11.97;81.91;100779.67;105512;1257;73839;-47
2023/05/22 04:42:04;;;;;;;7.40;5.00;;;;;;;12.02;81.82;100777.38;105451;1255;69935;-47
2023/05/22 04:44:35;;;;;;;8.80;5.50;;;;;;;12.10;81.71;100777.79;105497;1256;69992;-47
2023/05/22 04:47:04;;;;;;;8.10;5.70;;;;;;;12.20;81.44;100778.64;105513;1254;74886;-47
2023/05/22 04:49:35;;;;;;;7.50;5.10;;;;;;;12.30;81.30;100772.66;105533;1255;82399;-46
2023/05/22 04:52:07;;;;;;;8.00;5.50;;;;;;;12.40;81.38;100770.36;105656;1256;73629;-47
2023/05/22 04:54:35;;;;;;;7.50;4.70;;;;;;;12.48;81.20;100773.17;105485;1255;69954;-46
2023/05/22 04:57:04;;;;;;;6.50;4.80;;;;;;;12.58;81.13;100769.64;105519;1257;69943;-46
2023/05/22 04:59:36;;;;;;;6.50;4.80;;;;;;;12.68;81.20;100765.03;105863;1257;75079;-47
2023/05/22 05:02:05;;;;;;;7.30;4.90;;;;;;;12.81;80.96;100765.73;105917;1255;84674;-50
2023/05/22 05:04:33;;;;;;;6.80;4.50;;;;;;;12.93;81.13;100767.35;106011;1256;73678;-47
2023/05/22 05:07:03;;;;;;;8.20;4.90;;;;;;;13.03;80.90;100771.52;105754;1252;70081;-46
2023/05/22 05:09:32;;;;;;;5.10;4.60;;;;;;;13.12;80.58;100775.86;105634;1251;70050;-46
2023/05/22 05:12:02;;;;;;;8.20;4.60;;;;;;;13.22;80.16;100775.13;105593;1256;73856;-46
2023/05/22 05:14:30;;;;;;;5.70;4.30;;;;;;;13.31;79.78;100774.92;105833;1255;83278;-46
2023/05/22 05:16:58;;;;;;;6.80;4.50;;;;;;;13.42;79.38;100779.73;105547;1254;73789;-46
2023/05/22 05:19:27;;;;;;;6.40;4.50;;;;;;;13.52;79.07;100780.34;105533;1256;70257;-47
2023/05/22 05:21:55;;;;;;;7.00;4.80;;;;;;;13.63;78.86;100780.40;105539;1251;70098;-48
2023/05/22 05:24:25;;;;;;;7.50;4.60;;;;;;;13.73;78.51;100775.94;105843;1256;73571;-46
2023/05/22 05:26:53;;;;;;;7.10;4.50;;;;;;;13.82;78.12;100774.30;105792;1256;83384;-49
2023/05/22 05:29:22;;;;;;;7.70;4.50;;;;;;;13.90;77.76;100774.46;105682;1257;73625;-45
2023/05/22 05:31:58;;;;;;;8.30;4.40;;;;;;;14.00;77.59;100777.89;105713;1257;69909;-49
2023/05/22 05:34:39;;;;;;;6.60;4.10;;;;;;;14.10;77.13;100780.95;105727;1255;69965;-46
2023/05/22 05:37:20;;;;;;;5.10;4.20;;;;;;;14.20;76.96;100782.41;105628;1256;74920;-46
2023/05/22 05:39:49;;;;;;;5.50;3.90;;;;;;;14.30;76.72;100781.77;105705;1254;81658;-46
2023/05/22 05:42:17;;;;;;;4.10;3.60;;;;;;;14.41;76.57;100779.88;105645;1258;73544;-46
2023/05/22 05:44:47;;;;;;;5.70;3.90;;;;;;;14.52;76.43;100783.05;105851;1252;69995;-46
2023/05/22 05:47:16;;;;;;;5.90;4.00;;;;;;;14.64;76.20;100783.71;105566;1251;70373;-48
2023/05/22 05:49:44;;;;;;;4.50;3.70;;;;;;;14.76;75.87;100784.02;105662;1257;73821;-46
2023/05/22 05:52:14;;;;;;;;;;;;;;;14.86;75.28;100786.88;105652;1254;81977;-46
2023/05/22 05:54:46;;;;;;;5.80;3.90;;;;;;;14.96;74.68;100786.21;105514;1257;73928;-46
2023/05/22 05:57:18;;;;;;;4.50;3.80;;;;;;;15.06;74.27;100788.19;105655;1256;70034;-50
2023/05/22 05:59:46;;;;;;;5.00;3.40;;;;;;;15.18;74.20;100786.04;105578;1254;70593;-46
2023/05/22 06:02:38;;;;;;;6.80;3.50;;;;;;;15.31;73.36;100777.98;105647;1256;74752;-46
2023/05/22 06:05:16;;;;;;;6.40;3.50;;;;;;;15.43;72.91;100772.98;105821;1256;83332;-46
2023/05/22 06:07:45;;;;;;;6.20;3.30;;;;;;;15.54;72.40;100775.21;105762;1251;73878;-46
2023/05/22 06:10:13;;;;;;;4.20;3.50;;;;;;;15.66;71.60;100772.48;106358;1256;69900;-47
2023/05/22 06:12:55;;;;;;;4.60;3.60;;;;;;;15.80;71.17;100773.34;105650;1257;69858;-47
2023/05/22 06:15:23;;;;;;;4.50;3.10;;;;;;;15.96;70.86;100771.64;105670;1256;75051;-47
2023/05/22 06:17:52;;;;;;;4.90;3.60;;;;;;;16.08;70.13;100769.77;105748;1256;81778;-48
2023/05/22 06:20:21;;;;;;;7.40;3.40;;;;;;;16.16;69.62;100769.48;105630;1256;73647;-46
2023/05/22 06:22:50;;;;;;;6.00;3.50;;;;;;;16.26;69.46;100772.11;105671;1254;69896;-47
2023/05/22 06:25:19;;;;;;;8.60;3.00;;;;;;;16.39;68.94;100770.38;105706;1258;69948;-48
2023/05/22 06:27:48;;;;;;;6.70;3.40;;;;;;;16.46;68.52;100771.54;105787;1256;73865;-49
2023/05/22 06:30:16;;;;;;;4.90;3.20;;;;;;;16.57;68.11;100772.35;105767;1256;83062;-47
2023/05/22 06:33:05;;;;;;;4.00;2.90;;;;;;;16.71;67.80;100774.92;105611;1254;73694;-46
2023/05/22 06:35:33;;;;;;;4.10;3.20;;;;;;;16.81;67.09;100776.84;105549;1257;69981;-49
2023/05/22 06:38:02;;;;;;;4.60;3.10;;;;;;;16.92;66.66;100776.76;105687;1256;70389;-47
2023/05/22 06:40:31;;;;;;;3.60;2.80;;;;;;;17.05;66.50;100776.89;105716;1257;74902;-47
2023/05/22 06:43:14;;;;;;;5.90;3.10;;;;;;;17.18;66.03;100776.31;105568;1256;82575;-47
2023/05/22 06:45:55;;;;;;;7.00;3.20;;;;;;;17.29;65.53;100772.13;105629;1257;72702;-47
2023/05/22 06:48:23;;;;;;;8.90;4.40;;;;;;;17.39;65.06;100776.11;105653;1256;69997;-46
2023/05/22 06:51:15;;;;;;;7.50;3.50;;;;;;;17.49;64.56;100774.13;105605;1256;70430;-46
2023/05/22 06:53:45;;;;;;;72.70;24.40;;;;;;;17.59;64.90;100778.80;105560;1258;74892;-47
2023/05/22 06:56:17;;;;;;;14.90;6.00;;;;;;;17.67;64.38;100775.85;105751;1257;83433;-47
2023/05/22 06:58:51;;;;;;;4.50;3.50;;;;;;;17.74;63.55;100775.45;105801;1256;73470;-47
2023/05/22 07:01:21;;;;;;;5.20;3.30;;;;;;;17.80;63.17;100771.16;105842;1257;71490;-47
2023/05/22 07:04:01;;;;;;;;;;;;;;;17.90;63.11;100767.59;105567;1259;69807;-47
2023/05/22 07:06:40;;;;;;;3.30;2.40;;;;;;;18.01;62.83;100769.16;105740;1251;75937;-47
2023/05/22 07:09:10;;;;;;;5.00;2.70;;;;;;;18.14;62.50;100767.35;105584;1257;83228;-46
2023/05/22 07:11:38;;;;;;;5.90;3.00;;;;;;;18.26;61.78;100764.98;105737;1257;73665;-47
2023/05/22 07:14:07;;;;;;;5.60;3.30;;;;;;;18.39;61.28;100761.19;105583;1257;70315;-47
2023/05/22 07:16:35;;;;;;;7.20;3.30;;;;;;;18.51;61.16;100764.98;105601;1256;69966;-49
2023/05/22 07:19:05;;;;;;;5.20;3.00;;;;;;;18.65;61.16;100762.14;105718;1258;75104;-49
2023/05/22 07:21:34;;;;;;;5.80;3.00;;;;;;;18.78;60.51;100763.95;105691;1257;83492;-51
2023/05/22 07:24:07;;;;;;;;;;;;;;;18.90;60.25;100764.59;105603;1257;74189;-48
2023/05/22 07:26:40;;;;;;;4.80;2.90;;;;;;;19.03;59.67;100765.52;105792;1257;69976;-47
2023/05/22 07:29:10;;;;;;;5.10;3.00;;;;;;;19.15;59.49;100770.52;105793;1257;69963;-47
2023/05/22 07:31:39;;;;;;;4.30;3.10;;;;;;;19.29;58.95;100766.81;105779;1257;74919;-46
2023/05/22 07:34:08;;;;;;;6.20;3.20;;;;;;;19.39;58.64;100767.01;105864;1256;83414;-47
2023/05/22 07:36:36;;;;;;;4.20;2.90;;;;;;;19.47;58.31;100768.19;105733;1256;73944;-47
2023/05/22 07:39:05;;;;;;;5.10;3.30;;;;;;;19.60;58.71;100763.75;105757;1257;69995;-47
2023/05/22 07:41:37;;;;;;;5.70;3.20;;;;;;;19.75;57.97;100759.72;105707;1257;69925;-48
2023/05/22 07:44:06;;;;;;;;;;;;;;;19.86;57.34;100759.91;105691;1256;74816;-50
2023/05/22 07:46:36;;;;;;;;;;;;;;;19.91;56.49;100757.77;105700;1256;83345;-48
2023/05/22 07:49:11;;;;;;;4.30;2.80;;;;;;;19.97;56.34;100758.94;105608;1257;73670;-49
2023/05/22 07:51:42;;;;;;;8.10;3.30;;;;;;;20.08;55.97;100756.52;105566;1254;69916;-48
2023/05/22 07:54:12;;;;;;;5.90;3.00;;;;;;;20.19;55.86;100761.43;105568;1257;69943;-48
2023/05/22 07:56:41;;;;;;;5.20;2.70;;;;;;;20.31;55.23;100757.55;105637;1256;75078;-47
2023/05/22 07:59:11;;;;;;;6.30;2.70;;;;;;;20.40;54.65;100753.02;105657;1251;83711;-47
2023/05/22 08:01:40;;;;;;;8.00;3.00;;;;;;;20.47;54.63;100754.95;105680;1251;72847;-48
2023/05/22 08:04:09;;;;;;;6.30;2.90;;;;;;;20.56;54.26;100754.88;105685;1256;70004;-46
2023/05/22 08:06:38;;;;;;;5.60;2.70;;;;;;;20.66;53.31;100757.87;105728;1256;69992;-48
2023/05/22 08:09:06;;;;;;;5.30;3.30;;;;;;;20.74;53.02;100754.45;105680;1257;74918;-47
2023/05/22 08:11:36;;;;;;;4.00;2.70;;;;;;;20.83;52.76;100753.42;105671;1255;83266;-48
2023/05/22 08:14:06;;;;;;;3.60;2.80;;;;;;;20.96;52.14;100750.89;105645;1257;71679;-47
2023/05/22 08:16:35;;;;;;;5.40;2.80;;;;;;;21.05;51.55;100745.36;105635;1264;69920;-46
2023/05/22 08:19:05;;;;;;;3.70;2.70;;;;;;;21.16;51.20;100747.21;105629;1257;69937;-48
2023/05/22 08:21:34;;;;;;;7.20;2.80;;;;;;;21.29;51.04;100744.30;105668;1257;74547;-47
2023/05/22 08:24:03;;;;;;;4.40;2.90;;;;;;;21.45;50.56;100750.02;105618;1251;83734;-47
2023/05/22 08:26:32;;;;;;;3.70;2.50;;;;;;;21.56;49.74;100748.10;105683;1256;73472;-47
2023/05/22 08:29:01;;;;;;;5.10;2.90;;;;;;;21.65;49.37;100749.69;105663;1257;69941;-48
2023/05/22 08:31:29;;;;;;;4.10;2.90;;;;;;;21.79;49.07;100747.37;105606;1257;69903;-47
2023/05/22 08:34:01;;;;;;;3.70;2.70;;;;;;;21.95;48.89;100749.65;105652;1257;73990;-48
2023/05/22 08:36:32;;;;;;;4.30;3.00;;;;;;;22.05;48.23;100746.73;105655;1254;83685;-46
2023/05/22 08:39:01;;;;;;;5.30;2.70;;;;;;;22.14;48.02;100748.31;105621;1251;73879;-48
2023/05/22 08:41:29;;;;;;;5.90;2.50;;;;;;;22.23;47.43;100748.67;105645;1252;70002;-48
2023/05/22 08:43:57;;;;;;;5.60;2.70;;;;;;;22.31;47.46;100746.45;105668;1257;70037;-48
2023/05/22 08:46:28;;;;;;;5.80;2.90;;;;;;;22.41;46.89;100740.83;105664;1257;73746;-49
2023/05/22 08:48:57;;;;;;;5.40;2.80;;;;;;;22.44;46.65;100736.11;105678;1257;83541;-48
2023/05/22 08:51:28;;;;;;;4.60;2.40;;;;;;;22.50;46.50;100737.39;105714;1257;73761;-50
2023/05/22 08:53:56;;;;;;;7.20;3.00;;;;;;;22.57;45.96;100732.73;105600;1255;69889;-48
2023/05/22 08:56:25;;;;;;;8.60;2.80;;;;;;;22.63;45.91;100731.59;105649;1257;70001;-48
2023/05/22 08:58:57;;;;;;;7.20;2.60;;;;;;;22.70;45.20;100730.41;105668;1264;74995;-47
2023/05/22 09:01:27;;;;;;;3.80;2.20;;;;;;;22.82;44.73;100728.40;105647;1257;83477;-48
2023/05/22 09:04:00;;;;;;;5.20;2.30;;;;;;;22.93;43.98;100728.88;105642;1251;72687;-48
2023/05/22 09:06:29;;;;;;;7.60;2.80;;;;;;;23.08;43.44;100724.95;105622;1256;70025;-47
2023/05/22 09:09:02;;;;;;;4.60;2.40;;;;;;;23.21;43.11;100725.86;105677;1257;69879;-48
2023/05/22 09:11:30;;;;;;;6.60;2.50;;;;;;;23.33;42.82;100725.38;105585;1252;75061;-48
2023/05/22 09:14:08;;;;;;;6.20;2.60;;;;;;;23.41;42.00;100721.09;105635;1257;83676;-49
2023/05/22 09:16:47;;;;;;;5.30;2.30;;;;;;;23.49;41.70;100722.02;105661;1252;72784;-48
2023/05/22 09:19:15;;;;;;;3.70;2.30;;;;;;;23.62;41.59;100716.05;105652;1251;69954;-48
2023/05/22 09:21:44;;;;;;;6.90;2.50;;;;;;;23.78;41.34;100710.77;105591;1261;69962;-49
2023/05/22 09:24:13;;;;;;;4.50;2.40;;;;;;;23.98;40.98;100709.94;105590;1251;75196;-48
2023/05/22 09:26:41;;;;;;;3.70;2.00;;;;;;;24.13;40.39;100708.08;105470;1251;83387;-48
2023/05/22 09:29:09;;;;;;;3.00;2.70;;;;;;;24.21;39.92;100704.68;105461;1257;73773;-50
2023/05/22 09:31:42;;;;;;;4.30;2.00;;;;;;;24.35;39.95;100705.05;105394;1252;69992;-48
2023/05/22 09:34:14;;;;;;;6.50;2.70;;;;;;;24.52;39.69;100704.56;109441;1251;67864;-49
2023/05/22 09:36:42;;;;;;;3.70;2.20;;;;;;;24.65;39.15;100702.83;109431;1256;74857;-50
2023/05/22 09:39:11;;;;;;;4.50;2.70;;;;;;;24.71;38.73;100703.70;109424;1251;83367;-49
2023/05/22 09:41:39;;;;;;;3.70;2.10;;;;;;;24.68;38.49;100702.04;109428;1251;73849;-49
2023/05/22 09:44:14;;;;;;;2.40;2.00;;;;;;;24.69;38.16;100698.87;109420;1251;68038;-48
2023/05/22 09:46:46;;;;;;;3.20;2.50;;;;;;;24.66;37.78;100696.27;109484;1251;67900;-48
2023/05/22 09:49:15;;;;;;;4.50;2.30;;;;;;;24.60;37.50;100693.05;109440;1251;74803;-49
2023/05/22 09:51:47;;;;;;;3.00;2.10;;;;;;;24.56;37.46;100690.06;109457;1251;82354;-49
2023/05/22 09:54:18;;;;;;;5.70;2.30;;;;;;;24.55;37.48;100693.36;108745;1251;72360;-49
2023/05/22 09:56:48;;;;;;;3.30;2.20;;;;;;;24.62;37.43;100687.92;105575;1257;69997;-50
2023/05/22 09:59:25;;;;;;;6.10;2.10;;;;;;;24.78;37.48;100689.91;105649;1264;69947;-47
2023/05/22 10:01:54;;;;;;;5.90;2.70;;;;;;;24.94;37.26;100687.48;105699;1260;73794;-48
2023/05/22 10:04:23;;;;;;;5.00;2.70;;;;;;;25.07;37.28;100687.32;105683;1257;82497;-48
2023/05/22 10:06:56;;;;;;;4.50;2.30;;;;;;;25.21;37.29;100683.02;105612;1257;73907;-48
2023/05/22 10:09:29;;;;;;;4.10;2.40;;;;;;;25.39;37.27;100684.75;105577;1252;70201;-47
2023/05/22 10:12:03;;;;;;;4.10;2.40;;;;;;;25.56;36.95;100681.14;105664;1258;69986;-48
2023/05/22 10:14:33;;;;;;;3.10;2.20;;;;;;;25.77;36.69;100674.48;105683;1257;74946;-48
2023/05/22 10:17:05;;;;;;;5.00;2.20;;;;;;;26.04;36.44;100676.10;105644;1257;83401;-49
2023/05/22 10:19:35;;;;;;;4.60;2.30;;;;;;;26.27;35.79;100673.11;105654;1256;72671;-48
2023/05/22 10:22:10;;;;;;;5.10;2.40;;;;;;;26.47;35.12;100663.47;105642;1257;69868;-48
2023/05/22 10:24:38;;;;;;;2.90;2.30;;;;;;;26.65;34.88;100665.65;105663;1251;69991;-48
2023/05/22 10:27:07;;;;;;;3.20;2.20;;;;;;;26.88;34.86;100664.57;105707;1258;73922;-48
2023/05/22 10:29:41;;;;;;;8.30;2.40;;;;;;;27.13;34.16;100665.23;105625;1255;83359;-49
2023/05/22 10:32:20;;;;;;;3.90;2.30;;;;;;;27.34;33.74;100664.73;105632;1256;74012;-49
2023/05/22 10:34:55;;;;;;;6.50;2.40;;;;;;;27.62;33.29;100660.04;105591;1257;70002;-49
2023/05/22 10:37:55;;;;;;;3.80;2.20;;;;;;;27.88;33.36;100656.08;105586;1256;69893;-48
2023/05/22 10:40:27;;;;;;;5.40;2.40;;;;;;;28.13;32.73;100650.32;105705;1257;74902;-48
2023/05/22 10:43:01;;;;;;;4.30;2.00;;;;;;;28.24;32.61;100650.50;105650;1255;82871;-49
2023/05/22 10:45:30;;;;;;;3.80;2.30;;;;;;;28.36;31.96;100655.41;105640;1257;72357;-49
2023/05/22 10:48:06;;;;;;;2.40;2.10;;;;;;;28.51;31.82;100649.99;105670;1256;69870;-49
2023/05/22 10:50:35;;;;;;;2.60;2.20;;;;;;;28.65;31.55;100648.11;105628;1257;69886;-48
2023/05/22 10:53:25;;;;;;;2.90;2.10;;;;;;;28.82;31.23;100642.48;105673;1255;74905;-48
2023/05/22 10:55:55;;;;;;;2.80;2.00;;;;;;;29.08;30.92;100636.12;105676;1257;83485;-47
2023/05/22 10:58:28;;;;;;;2.70;2.10;;;;;;;29.35;30.56;100645.52;105631;1256;73900;-48
2023/05/22 11:01:13;;;;;;;4.20;1.80;;;;;;;29.43;30.39;100640.91;105686;1256;70021;-48
2023/05/22 11:04:12;;;;;;;3.00;2.20;;;;;;;29.49;29.66;100640.20;105688;1257;69919;-48
2023/05/22 11:07:03;;;;;;;3.00;1.80;;;;;;;29.51;29.44;100642.63;105618;1257;75022;-48
2023/05/22 11:09:46;;;;;;;3.60;1.90;;;;;;;29.53;29.14;100635.05;105686;1256;83416;-47
2023/05/22 11:12:29;;;;;;;3.00;2.10;;;;;;;29.59;29.27;100631.29;105654;1256;73514;-48
2023/05/22 11:15:06;;;;;;;3.30;2.30;;;;;;;29.43;28.94;100631.91;105582;1256;69998;-47
2023/05/22 11:17:38;;;;;;;5.10;2.00;;;;;;;29.44;28.86;100626.90;105601;1256;69998;-47
2023/05/22 11:20:09;;;;;;;6.10;2.70;;;;;;;29.55;28.59;100624.35;105618;1251;74620;-46
2023/05/22 11:22:42;;;;;;;3.60;2.30;;;;;;;29.33;28.02;100625.48;105608;1256;83520;-47
2023/05/22 11:25:15;;;;;;;3.30;2.00;;;;;;;29.16;28.20;100627.53;105605;1257;73853;-47
2023/05/22 11:27:44;;;;;;;2.90;2.00;;;;;;;29.10;28.37;100626.08;105581;1251;69925;-46
2023/05/22 11:30:13;;;;;;;5.70;2.00;;;;;;;29.06;28.56;100625.39;105566;1251;69893;-47
2023/05/22 11:32:43;;;;;;;5.80;2.30;;;;;;;29.01;28.20;100621.05;105650;1251;74591;-48
2023/05/22 11:35:21;;;;;;;4.90;2.00;;;;;;;28.98;28.25;100615.31;105600;1257;82511;-47
2023/05/22 11:37:52;;;;;;;3.10;2.30;;;;;;;29.14;28.27;100616.56;105607;1251;72833;-47